createdAt,value
2023-03-07T13:09:38.473Z,8.38
2023-03-07T13:12:43.002Z,7.80
2023-03-07T13:16:05.496Z,8.63
2023-03-07T13:19:55.710Z,8.45
2023-03-07T13:23:14.515Z,7.90
2023-03-07T13:26:26.313Z,7.55
2023-03-07T13:30:18.238Z,7.78
2023-03-07T13:33:30.160Z,7.55
2023-03-07T13:36:38.781Z,8.10
2023-03-07T13:44:39.527Z,6.97
2023-03-07T13:47:44.029Z,7.93
2023-03-07T13:51:09.586Z,8.00
2023-03-07T13:54:15.588Z,7.90
2023-03-07T13:57:24.036Z,7.25
2023-03-07T14:00:56.468Z,7.68
2023-03-07T14:07:24.929Z,7.30
2023-03-07T14:10:34.267Z,7.30
2023-03-07T14:14:28.968Z,7.90
2023-03-07T14:17:56.901Z,7.63
2023-03-07T14:21:16.123Z,7.30
2023-03-07T14:24:58.840Z,7.30
2023-03-07T14:31:26.490Z,7.40
2023-03-07T14:34:34.525Z,6.47
2023-03-07T14:37:40.684Z,7.57
2023-03-07T14:41:03.423Z,7.65
2023-03-07T14:44:55.477Z,7.72
2023-03-07T14:48:31.282Z,6.60
2023-03-07T14:51:42.569Z,7.75
2023-03-07T14:54:48.607Z,7.50
2023-03-07T14:57:55.970Z,7.97
2023-03-07T15:01:01.812Z,7.90
2023-03-07T15:04:23.405Z,7.43
2023-03-07T15:07:28.331Z,7.93
2023-03-07T15:10:40.743Z,7.57
2023-03-07T15:13:50.181Z,7.57
2023-03-07T15:17:03.129Z,7.93
2023-03-07T15:20:18.021Z,7.15
2023-03-07T15:23:29.121Z,8.25
2023-03-07T15:26:33.536Z,7.32
2023-03-07T15:29:39.466Z,7.90
2023-03-07T15:32:43.402Z,8.13
2023-03-07T15:36:06.765Z,8.65
2023-03-07T15:39:34.663Z,8.10
2023-03-07T15:42:51.668Z,7.97
2023-03-07T15:46:06.113Z,8.40
2023-03-07T15:49:23.047Z,7.38
2023-03-07T15:52:33.073Z,8.13
2023-03-07T15:55:41.566Z,8.52
2023-03-07T15:58:46.954Z,8.40
2023-03-07T16:01:50.898Z,9.10
2023-03-07T16:04:55.079Z,8.40
2023-03-07T16:08:00.149Z,8.70
2023-03-07T16:11:09.149Z,9.20
2023-03-07T16:14:26.088Z,9.55
2023-03-07T16:17:37.157Z,9.65
2023-03-07T16:20:41.598Z,10.05
2023-03-07T16:23:46.909Z,10.55
2023-03-07T16:26:52.581Z,10.45
2023-03-07T16:29:56.451Z,10.05
2023-03-07T16:33:00.282Z,10.02
2023-03-07T16:36:03.911Z,10.65
2023-03-07T16:39:07.739Z,11.43
2023-03-07T16:42:23.447Z,11.20
2023-03-07T16:45:30.197Z,9.98
2023-03-07T16:48:34.920Z,11.15
2023-03-07T16:51:38.747Z,11.07
2023-03-07T16:54:42.516Z,11.25
2023-03-07T16:57:51.873Z,10.73
2023-03-07T17:00:55.909Z,10.52
2023-03-07T17:03:59.679Z,10.73
2023-03-07T17:07:05.027Z,10.23
2023-03-07T17:10:10.687Z,11.52
2023-03-07T17:13:19.400Z,10.90
2023-03-07T17:16:24.748Z,12.48
2023-03-07T17:19:31.435Z,11.82
2023-03-07T17:22:36.186Z,12.88
2023-03-07T17:25:41.621Z,12.18
2023-03-07T17:28:47.527Z,12.77
2023-03-07T17:31:50.996Z,11.75
2023-03-07T17:34:54.785Z,12.65
2023-03-07T17:37:58.382Z,12.70
2023-03-07T17:41:02.193Z,12.35
2023-03-07T17:44:07.087Z,12.77
2023-03-07T17:47:11.020Z,11.15
2023-03-07T17:50:14.514Z,10.38
2023-03-07T17:53:18.527Z,9.57
2023-03-07T17:56:22.094Z,9.52
2023-03-07T17:59:27.391Z,9.27
2023-03-07T18:02:30.894Z,9.30
2023-03-07T18:05:34.754Z,8.65
2023-03-07T18:08:38.570Z,9.23
2023-03-07T18:11:42.677Z,9.02
2023-03-07T18:14:47.864Z,8.52
2023-03-07T18:17:52.074Z,9.18
